createdAt,value
2023-03-10T00:00:48.389Z,8.93
2023-03-10T00:05:51.263Z,9.67
2023-03-10T00:10:55.440Z,9.57
2023-03-10T00:15:58.494Z,9.30
2023-03-10T00:21:01.661Z,9.60
2023-03-10T00:26:06.132Z,8.47
2023-03-10T00:31:10.421Z,8.93
2023-03-10T00:36:15.268Z,8.80
2023-03-10T00:41:21.278Z,11.17
2023-03-10T00:46:25.163Z,10.30
2023-03-10T00:51:28.213Z,10.17
2023-03-10T00:56:32.626Z,10.20
2023-03-10T01:01:37.749Z,9.50
2023-03-10T01:06:40.816Z,10.60
2023-03-10T01:11:45.142Z,9.47
2023-03-10T01:16:48.080Z,9.43
2023-03-10T01:21:50.944Z,10.23
2023-03-10T01:26:55.195Z,10.13
2023-03-10T01:31:58.104Z,8.10
2023-03-10T01:37:01.224Z,8.70
2023-03-10T01:42:05.791Z,9.27
2023-03-10T01:47:08.780Z,9.17
2023-03-10T01:52:14.040Z,12.40
2023-03-10T01:57:20.528Z,9.20
2023-03-10T02:02:23.952Z,8.83
2023-03-10T02:07:29.071Z,8.23
2023-03-10T02:12:33.428Z,9.87
2023-03-10T02:17:36.322Z,6.90
2023-03-10T02:22:39.918Z,9.77
2023-03-10T02:27:45.797Z,10.70
2023-03-10T02:32:51.216Z,9.03
2023-03-10T02:37:54.253Z,9.10
2023-03-10T02:42:58.927Z,8.30
2023-03-10T02:48:01.965Z,7.33
2023-03-10T02:53:08.455Z,9.90
2023-03-10T02:58:13.460Z,10.43
2023-03-10T03:03:18.325Z,8.17
2023-03-10T03:08:21.784Z,7.57
2023-03-10T03:13:26.343Z,8.57
2023-03-10T03:18:29.369Z,7.60
2023-03-10T03:23:32.325Z,7.73
2023-03-10T03:28:36.863Z,7.17
2023-03-10T03:33:39.728Z,7.60
2023-03-10T03:38:43.333Z,6.33
2023-03-10T03:43:48.085Z,6.43
2023-03-10T03:48:50.971Z,7.07
2023-03-10T03:53:54.262Z,6.77
2023-03-10T03:58:59.231Z,8.03
2023-03-10T04:04:02.564Z,7.27
2023-03-10T04:09:06.574Z,6.93
2023-03-10T04:14:11.572Z,8.13
2023-03-10T04:19:14.608Z,8.97
2023-03-10T04:24:20.919Z,7.40
2023-03-10T04:29:25.234Z,6.47
2023-03-10T04:34:30.438Z,7.97
2023-03-10T04:39:33.712Z,6.23
2023-03-10T04:44:38.688Z,6.63
2023-03-10T04:49:43.029Z,6.43
2023-03-10T04:54:48.764Z,7.93
2023-03-10T04:59:53.579Z,7.43
2023-03-10T05:04:58.354Z,6.60
2023-03-10T05:10:01.587Z,7.83
2023-03-10T05:15:09.169Z,6.60
2023-03-10T05:20:14.326Z,6.77
2023-03-10T05:25:17.550Z,7.23
2023-03-10T05:30:21.996Z,7.47
2023-03-10T05:35:27.453Z,7.77
2023-03-10T05:40:30.488Z,8.03
2023-03-10T05:45:34.931Z,7.90
2023-03-10T05:50:38.209Z,9.63
2023-03-10T05:55:41.391Z,10.13
2023-03-10T06:00:45.643Z,10.23
2023-03-10T06:05:48.473Z,9.87
2023-03-10T06:10:51.734Z,10.63
2023-03-10T06:15:57.711Z,10.10
2023-03-10T06:21:00.759Z,10.90
2023-03-10T06:26:06.703Z,11.37
2023-03-10T06:31:14.431Z,10.53
2023-03-10T06:36:18.294Z,8.97
2023-03-10T06:41:22.169Z,10.23
2023-03-10T06:46:26.644Z,8.77
2023-03-10T06:51:29.494Z,8.73
2023-03-10T06:56:32.419Z,8.13
2023-03-10T07:01:36.744Z,8.47
2023-03-10T07:06:40.087Z,8.77
2023-03-10T07:11:42.933Z,8.73
2023-03-10T07:16:47.236Z,7.50
2023-03-10T07:21:50.370Z,8.57
2023-03-10T07:26:53.373Z,7.03
2023-03-10T07:31:57.542Z,7.33
2023-03-10T07:37:00.321Z,7.90
2023-03-10T07:42:03.241Z,8.90
2023-03-10T07:47:09.677Z,5.90
2023-03-10T07:52:12.465Z,7.27
2023-03-10T07:57:15.938Z,7.70
2023-03-10T08:02:20.116Z,7.57
2023-03-10T08:07:22.927Z,6.87
2023-03-10T08:12:25.835Z,6.53
2023-03-10T08:17:31.224Z,8.27
2023-03-10T08:22:34.320Z,6.47
2023-03-10T08:27:37.174Z,7.23
2023-03-10T08:32:41.658Z,7.73
2023-03-10T08:37:44.568Z,7.80
2023-03-10T08:42:48.601Z,7.00
2023-03-10T08:47:53.066Z,8.60
2023-03-10T08:52:56.127Z,8.40
2023-03-10T08:57:59.411Z,9.87
2023-03-10T09:03:03.917Z,9.23
2023-03-10T09:08:08.102Z,10.07
2023-03-10T09:13:14.249Z,10.40
2023-03-10T09:18:18.810Z,12.60
2023-03-10T09:23:21.721Z,14.17
2023-03-10T09:28:24.812Z,13.30
2023-03-10T09:33:29.150Z,12.33
2023-03-10T09:38:32.005Z,13.73
2023-03-10T09:43:38.339Z,13.27
2023-03-10T09:48:48.612Z,12.27
2023-03-10T09:53:58.199Z,11.97
2023-03-10T09:59:07.495Z,9.27
2023-03-10T10:04:14.054Z,10.40
2023-03-10T10:09:24.506Z,9.13
2023-03-10T10:14:31.556Z,8.60
2023-03-10T10:19:39.433Z,9.37
2023-03-10T10:24:42.634Z,9.53
2023-03-10T10:29:47.160Z,9.83
2023-03-10T10:34:51.798Z,9.47
2023-03-10T10:39:55.836Z,9.03
2023-03-10T10:45:02.274Z,8.80
2023-03-10T10:50:19.830Z,8.97
2023-03-10T10:55:28.743Z,10.47
2023-03-10T11:00:34.130Z,11.23
2023-03-10T11:05:39.108Z,12.30
2023-03-10T11:10:42.082Z,11.27
2023-03-10T11:15:52.046Z,12.27
2023-03-10T11:21:00.316Z,11.90
2023-03-10T11:26:07.457Z,11.77
2023-03-10T11:31:18.980Z,11.30
2023-03-10T11:36:32.173Z,10.03
2023-03-10T11:41:38.673Z,11.27
2023-03-10T11:46:45.037Z,11.90
2023-03-10T11:51:51.029Z,10.67
2023-03-10T11:56:54.272Z,12.97
2023-03-10T12:01:59.987Z,11.30
2023-03-10T12:07:07.721Z,12.93
2023-03-10T12:12:15.284Z,10.97
2023-03-10T12:17:18.821Z,11.00
2023-03-10T12:22:26.530Z,11.30
2023-03-10T12:27:29.346Z,10.87
2023-03-10T12:32:47.494Z,11.83
2023-03-10T12:38:27.839Z,11.97
2023-03-10T12:44:04.077Z,11.23
2023-03-10T12:49:24.612Z,12.10
2023-03-10T12:54:38.557Z,14.07
2023-03-10T12:59:46.778Z,13.03
2023-03-10T13:04:49.717Z,11.77
2023-03-10T13:09:54.050Z,12.50
2023-03-10T13:14:58.947Z,11.70
2023-03-10T13:20:06.517Z,8.73
2023-03-10T13:25:15.520Z,9.27
2023-03-10T13:30:20.148Z,10.13
2023-03-10T13:35:27.139Z,9.73
2023-03-10T13:40:31.373Z,8.43
2023-03-10T13:45:34.925Z,7.33
2023-03-10T13:50:37.832Z,7.70
2023-03-10T13:55:42.144Z,5.57
2023-03-10T14:00:50.499Z,6.80
2023-03-10T14:05:53.985Z,5.00
2023-03-10T14:11:29.549Z,4.90
2023-03-10T14:16:53.711Z,5.73
2023-03-10T14:22:01.841Z,6.17
2023-03-10T14:27:10.081Z,4.43
2023-03-10T14:32:14.818Z,4.60
2023-03-10T14:37:18.163Z,5.50
2023-03-10T14:42:23.818Z,5.43
2023-03-10T14:47:28.617Z,4.60
2023-03-10T14:52:32.043Z,5.17
2023-03-10T14:57:35.081Z,4.13
2023-03-10T15:02:39.714Z,4.07
2023-03-10T15:07:42.645Z,3.93
2023-03-10T15:12:45.820Z,4.67
2023-03-10T15:17:50.504Z,4.13
2023-03-10T15:22:53.423Z,2.53
2023-03-10T15:27:56.334Z,1.30
2023-03-10T15:33:00.711Z,1.10
2023-03-10T15:38:04.032Z,0.77
2023-03-10T15:43:07.104Z,1.10
2023-03-10T15:48:11.596Z,0.80
2023-03-10T15:53:14.801Z,1.73
2023-03-10T15:58:17.862Z,1.10
2023-03-10T16:03:22.087Z,0.90
2023-03-10T16:08:24.872Z,1.10
2023-03-10T16:13:28.209Z,0.70
2023-03-10T16:18:32.382Z,0.87
2023-03-10T16:23:35.281Z,0.80
2023-03-10T16:28:39.370Z,0.57
2023-03-10T16:33:44.313Z,1.00
2023-03-10T16:38:47.268Z,0.57
2023-03-10T16:43:50.159Z,1.13
2023-03-10T16:48:55.372Z,0.87
2023-03-10T16:54:00.528Z,1.33
2023-03-10T16:59:03.473Z,0.63
2023-03-10T17:04:07.738Z,0.83
2023-03-10T17:09:11.946Z,0.60
2023-03-10T17:14:16.376Z,0.80
2023-03-10T17:19:22.570Z,1.17
2023-03-10T17:24:25.889Z,0.90
2023-03-10T17:29:28.924Z,2.50
2023-03-10T17:34:33.287Z,0.63
2023-03-10T17:39:36.612Z,1.00
2023-03-10T17:44:39.528Z,0.97
2023-03-10T17:49:43.735Z,1.33
2023-03-10T17:54:46.606Z,0.97
2023-03-10T17:59:51.032Z,1.13
2023-03-10T18:04:55.185Z,1.90
2023-03-10T18:09:58.331Z,1.60
2023-03-10T18:15:01.192Z,1.77
2023-03-10T18:20:07.459Z,1.70
2023-03-10T18:25:10.990Z,1.67
2023-03-10T18:30:15.281Z,1.37
2023-03-10T18:35:19.684Z,2.10
2023-03-10T18:40:22.675Z,1.77
2023-03-10T18:45:25.556Z,1.33
2023-03-10T18:50:29.683Z,1.40
2023-03-10T18:55:32.596Z,1.60
2023-03-10T19:00:35.522Z,1.63
2023-03-10T19:05:40.102Z,2.37
2023-03-10T19:10:42.964Z,2.63
2023-03-10T19:15:45.836Z,1.67
2023-03-10T19:20:52.761Z,1.40
2023-03-10T19:25:56.114Z,2.00
2023-03-10T19:30:59.014Z,2.03
2023-03-10T19:36:04.987Z,1.80
2023-03-10T19:41:12.322Z,2.33
2023-03-10T19:46:16.332Z,2.00
2023-03-10T19:51:23.589Z,2.20
2023-03-10T19:56:26.527Z,3.77
2023-03-10T20:01:29.485Z,2.10
2023-03-10T20:06:33.796Z,1.80
2023-03-10T20:11:36.646Z,1.70
2023-03-10T20:16:40.078Z,1.53
2023-03-10T20:21:44.385Z,1.70
2023-03-10T20:26:47.198Z,1.23
2023-03-10T20:31:50.062Z,2.07
2023-03-10T20:36:54.214Z,1.60
2023-03-10T20:41:57.087Z,2.07
2023-03-10T20:47:00.064Z,2.30
2023-03-10T20:52:04.565Z,1.97
2023-03-10T20:57:08.525Z,2.47
2023-03-10T21:02:15.063Z,2.43
2023-03-10T21:07:19.398Z,2.37
2023-03-10T21:12:22.400Z,4.67
2023-03-10T21:17:27.063Z,4.13
2023-03-10T21:22:35.103Z,2.73
2023-03-10T21:27:37.965Z,1.73
2023-03-10T21:32:40.822Z,2.20
2023-03-10T21:37:46.903Z,1.77
2023-03-10T21:42:50.405Z,1.40
2023-03-10T21:47:53.298Z,1.73
2023-03-10T21:52:57.493Z,1.77
2023-03-10T21:58:00.385Z,1.40
2023-03-10T22:03:03.830Z,1.27
2023-03-10T22:08:08.206Z,1.77
2023-03-10T22:13:11.109Z,1.13
2023-03-10T22:18:13.922Z,1.37
2023-03-10T22:23:18.345Z,1.20
2023-03-10T22:28:21.285Z,1.50
2023-03-10T22:33:24.157Z,1.13
2023-03-10T22:38:28.492Z,1.50
2023-03-10T22:43:31.399Z,1.43
2023-03-10T22:48:34.290Z,1.60
2023-03-10T22:53:38.622Z,1.80
2023-03-10T22:58:41.533Z,1.40
2023-03-10T23:03:44.338Z,1.30
2023-03-10T23:08:48.598Z,1.43
2023-03-10T23:13:51.732Z,1.50
2023-03-10T23:18:54.637Z,0.70
2023-03-10T23:23:59.111Z,2.63
2023-03-10T23:29:02.809Z,1.30
2023-03-10T23:34:05.681Z,1.17
2023-03-10T23:39:13.440Z,1.30
2023-03-10T23:44:16.227Z,1.30
2023-03-10T23:49:19.356Z,1.00
2023-03-10T23:54:24.298Z,1.90
2023-03-10T23:59:27.261Z,1.67
